createdAt,value
2019-04-07T00:00:41.003Z,7.10
2019-04-07T00:03:10.668Z,7.00
2019-04-07T00:05:40.064Z,7.00
2019-04-07T00:08:10.085Z,7.00
2019-04-07T00:10:39.309Z,7.00
2019-04-07T00:13:08.662Z,6.90
2019-04-07T00:15:37.991Z,6.90
2019-04-07T00:18:07.797Z,6.80
2019-04-07T00:20:37.523Z,6.80
2019-04-07T00:23:07.027Z,6.70
2019-04-07T00:25:36.391Z,6.70
2019-04-07T00:28:05.840Z,6.60
2019-04-07T00:30:35.349Z,6.60
2019-04-07T00:33:05.145Z,6.50
2019-04-07T00:35:34.440Z,6.50
2019-04-07T00:38:03.979Z,6.50
2019-04-07T07:20:50.513Z,14.90
2019-04-07T07:23:24.079Z,15.40
2019-04-07T07:25:53.359Z,15.80
2019-04-07T07:28:22.778Z,15.80
2019-04-07T07:30:53.515Z,15.70
2019-04-07T07:33:26.108Z,15.60
2019-04-07T07:35:55.591Z,15.70
2019-04-07T07:38:27.003Z,15.70
2019-04-07T07:40:57.011Z,15.90
2019-04-07T07:43:29.242Z,16.10
2019-04-07T07:45:57.691Z,16.00
2019-04-07T07:48:28.399Z,16.10
2019-04-07T07:50:57.855Z,16.40
2019-04-07T07:53:28.609Z,16.30
2019-04-07T07:55:58.150Z,16.50
2019-04-07T07:58:29.382Z,16.60
2019-04-07T08:01:00.501Z,16.90
2019-04-07T08:03:30.342Z,17.30
2019-04-07T08:06:01.988Z,17.50
2019-04-07T08:08:31.062Z,17.80
2019-04-07T08:11:02.680Z,18.10
2019-04-07T08:13:32.530Z,18.50
2019-04-07T08:16:02.902Z,18.90
2019-04-07T08:18:36.167Z,19.00
2019-04-07T08:21:04.519Z,19.20
2019-04-07T08:23:34.156Z,19.30
2019-04-07T08:26:03.915Z,19.50
2019-04-07T08:28:35.657Z,19.60
2019-04-07T08:31:05.334Z,19.70
2019-04-07T08:33:35.506Z,19.80
2019-04-07T08:36:08.989Z,19.90
2019-04-07T08:38:38.373Z,20.20
2019-04-07T08:41:10.136Z,20.30
2019-04-07T08:43:38.743Z,20.60
2019-04-07T08:46:08.794Z,20.80
2019-04-07T08:48:38.788Z,21.00
2019-04-07T08:51:08.606Z,21.10
2019-04-07T08:53:38.836Z,21.40
2019-04-07T08:56:08.851Z,21.40
2019-04-07T08:58:39.139Z,21.70
2019-04-07T09:01:09.747Z,21.90
2019-04-07T09:03:39.978Z,22.10
2019-04-07T09:06:09.719Z,22.10
2019-04-07T09:08:39.878Z,22.40
2019-04-07T09:11:14.723Z,22.60
2019-04-07T09:13:50.985Z,22.70
2019-04-07T09:16:56.176Z,22.80
2019-04-07T09:19:44.179Z,23.20
2019-04-07T09:22:36.376Z,23.30
2019-04-07T09:25:37.866Z,23.50
2019-04-07T09:28:24.075Z,23.10
2019-04-07T09:31:21.981Z,22.40
2019-04-07T09:34:09.172Z,22.40
2019-04-07T09:37:09.676Z,22.60
2019-04-07T09:39:59.590Z,22.70
2019-04-07T09:42:36.991Z,22.80
2019-04-07T09:45:38.523Z,22.80
2019-04-07T09:48:26.719Z,22.70
2019-04-07T09:51:15.369Z,22.80
2019-04-07T09:54:10.131Z,22.40
2019-04-07T09:57:04.473Z,22.10
2019-04-07T09:59:50.728Z,22.10
2019-04-07T10:02:32.031Z,22.00
2019-04-07T10:05:15.965Z,22.00
2019-04-07T10:07:59.002Z,22.20
2019-04-07T10:10:45.921Z,21.80
2019-04-07T10:13:44.103Z,22.00
2019-04-07T10:16:25.842Z,22.10
2019-04-07T10:19:01.912Z,22.30
2019-04-07T10:21:49.752Z,22.00
2019-04-07T10:24:41.888Z,21.90
2019-04-07T10:27:32.863Z,21.60
2019-04-07T10:30:20.134Z,21.20
2019-04-07T10:33:05.153Z,21.80
2019-04-07T10:35:52.462Z,22.10
2019-04-07T10:38:33.704Z,22.10
2019-04-07T10:41:31.292Z,22.40
2019-04-07T10:44:23.827Z,22.20
2019-04-07T10:47:10.684Z,22.30
2019-04-07T10:50:01.411Z,22.30
2019-04-07T10:52:42.096Z,22.70
2019-04-07T10:55:31.503Z,23.10
2019-04-07T10:58:10.627Z,23.20
2019-04-07T11:00:51.309Z,23.40
2019-04-07T11:03:39.387Z,23.50
2019-04-07T11:06:16.769Z,22.90
2019-04-07T11:09:11.190Z,23.10
2019-04-07T11:11:50.020Z,23.00
2019-04-07T11:14:47.282Z,23.10
2019-04-07T11:17:23.135Z,23.10
2019-04-07T11:20:05.089Z,23.30
2019-04-07T11:23:01.974Z,23.40
2019-04-07T11:25:37.171Z,23.30
2019-04-07T11:28:33.825Z,23.40
2019-04-07T11:31:21.228Z,23.30
2019-04-07T11:34:19.399Z,23.70
2019-04-07T11:37:09.775Z,23.70
2019-04-07T11:40:02.854Z,23.90
2019-04-07T11:42:57.819Z,23.60
2019-04-07T11:45:52.243Z,23.30
2019-04-07T11:48:36.106Z,23.10
2019-04-07T11:51:10.651Z,23.10
2019-04-07T11:54:03.157Z,22.90
2019-04-07T11:56:52.319Z,22.70
2019-04-07T11:59:41.281Z,23.00
2019-04-07T12:02:29.732Z,22.60
2019-04-07T12:05:18.154Z,22.90
2019-04-07T12:08:06.156Z,23.40
2019-04-07T12:11:00.586Z,23.40
2019-04-07T12:13:47.961Z,23.40
2019-04-07T12:16:42.205Z,23.00
2019-04-07T12:19:30.888Z,23.10
2019-04-07T12:22:19.886Z,23.00
2019-04-07T12:25:02.004Z,22.70
2019-04-07T12:27:51.650Z,23.10
2019-04-07T12:30:39.801Z,23.50
2019-04-07T12:33:37.552Z,23.50
2019-04-07T12:36:39.808Z,23.90
2019-04-07T12:39:33.592Z,24.00
2019-04-07T12:42:11.338Z,23.60
2019-04-07T12:45:03.640Z,23.60
2019-04-07T12:47:55.325Z,24.10
2019-04-07T12:50:37.080Z,24.40
2019-04-07T12:53:32.232Z,24.50
2019-04-07T12:56:18.127Z,24.90
2019-04-07T12:58:53.757Z,25.30
2019-04-07T13:01:47.070Z,25.20
2019-04-07T13:04:36.868Z,24.70
2019-04-07T13:07:34.661Z,24.70
2019-04-07T13:10:09.485Z,24.50
2019-04-07T13:13:13.461Z,24.70
2019-04-07T13:15:58.145Z,24.50
2019-04-07T13:18:48.420Z,24.80
2019-04-07T13:21:40.365Z,24.90
2019-04-07T13:24:35.607Z,24.60
2019-04-07T13:27:16.654Z,24.50
2019-04-07T13:29:50.685Z,24.70
2019-04-07T13:32:39.349Z,24.10
2019-04-07T13:35:20.629Z,24.20
2019-04-07T13:37:58.985Z,24.50
2019-04-07T13:40:36.092Z,24.20
2019-04-07T13:43:23.159Z,23.80
2019-04-07T13:46:21.842Z,24.40
2019-04-07T13:49:00.504Z,24.60
2019-04-07T13:51:47.907Z,25.10
2019-04-07T13:54:35.131Z,25.30
2019-04-07T13:57:29.593Z,25.00
2019-04-07T14:00:14.267Z,25.50
2019-04-07T14:03:04.823Z,25.70
2019-04-07T14:05:41.667Z,25.20
2019-04-07T14:08:48.542Z,24.80
2019-04-07T14:11:36.087Z,25.00
2019-04-07T14:14:27.904Z,24.90
2019-04-07T14:17:16.505Z,24.80
2019-04-07T14:20:02.278Z,25.30
2019-04-07T14:22:59.464Z,25.80
2019-04-07T14:25:56.954Z,25.60
2019-04-07T14:28:44.234Z,25.20
2019-04-07T14:31:39.066Z,25.00
2019-04-07T14:34:42.961Z,25.60
2019-04-07T14:37:21.788Z,26.30
2019-04-07T14:40:16.327Z,26.40
2019-04-07T14:42:53.736Z,26.70
2019-04-07T14:45:40.676Z,26.60
2019-04-07T14:48:40.975Z,26.70
2019-04-07T14:51:28.438Z,27.00
2019-04-07T14:54:11.144Z,26.90
2019-04-07T14:56:59.594Z,26.90
2019-04-07T14:59:36.617Z,26.80
2019-04-07T15:02:07.274Z,26.90
2019-04-07T15:04:42.984Z,26.70
2019-04-07T15:07:31.334Z,26.40
2019-04-07T15:10:16.554Z,26.30
2019-04-07T15:12:53.986Z,26.40
2019-04-07T15:15:23.684Z,25.90
2019-04-07T15:17:53.133Z,25.30
2019-04-07T15:20:22.498Z,25.30
2019-04-07T15:22:51.833Z,25.60
2019-04-07T15:25:21.557Z,25.70
2019-04-07T15:27:52.763Z,25.70
2019-04-07T15:30:22.254Z,25.80
2019-04-07T15:32:51.725Z,25.90
2019-04-07T15:35:21.312Z,26.00
2019-04-07T15:37:51.857Z,24.90
2019-04-07T15:40:21.743Z,24.70
2019-04-07T15:42:51.298Z,24.50
2019-04-07T15:45:21.607Z,24.10
2019-04-07T15:47:53.703Z,24.20
2019-04-07T15:50:22.655Z,23.90
2019-04-07T15:52:52.310Z,23.60
2019-04-07T15:55:21.768Z,23.90
2019-04-07T15:57:54.864Z,24.10
2019-04-07T16:00:22.287Z,24.10
2019-04-07T16:02:53.322Z,24.00
2019-04-07T16:05:22.749Z,23.70
2019-04-07T16:07:53.655Z,23.50
2019-04-07T16:10:23.812Z,23.00
2019-04-07T16:12:56.760Z,23.10
2019-04-07T16:15:25.101Z,23.00
2019-04-07T16:17:54.465Z,22.70
2019-04-07T16:20:26.322Z,22.30
2019-04-07T16:22:55.365Z,22.00
2019-04-07T16:25:27.619Z,21.90
2019-04-07T16:27:56.568Z,21.90
2019-04-07T16:30:26.160Z,21.90
2019-04-07T16:32:59.706Z,21.90
2019-04-07T16:35:26.652Z,21.80
2019-04-07T16:37:58.368Z,21.70
2019-04-07T16:40:26.999Z,21.20
2019-04-07T16:43:07.905Z,21.00
2019-04-07T16:45:28.112Z,20.70
2019-04-07T16:47:57.461Z,20.50
2019-04-07T16:50:27.249Z,20.30
2019-04-07T16:52:57.565Z,20.20
2019-04-07T16:55:35.748Z,20.10
2019-04-07T16:58:06.325Z,20.10
2019-04-07T17:00:36.140Z,19.90
2019-04-07T17:03:07.675Z,19.70
2019-04-07T17:05:37.523Z,19.60
2019-04-07T17:08:07.374Z,19.40
2019-04-07T17:10:37.032Z,19.30
2019-04-07T17:13:16.899Z,19.20
2019-04-07T17:15:40.309Z,19.10
2019-04-07T17:18:11.833Z,19.00
2019-04-07T17:20:44.347Z,19.00
2019-04-07T17:23:13.703Z,18.80
2019-04-07T17:25:43.931Z,18.70
2019-04-07T17:28:14.186Z,18.70
2019-04-07T17:30:44.472Z,18.60
2019-04-07T17:33:14.275Z,18.50
2019-04-07T17:35:45.235Z,18.40
2019-04-07T17:38:17.137Z,18.30
2019-04-07T17:40:49.758Z,18.20
2019-04-07T17:43:47.349Z,18.10
2019-04-07T17:46:43.105Z,18.00
2019-04-07T17:49:37.279Z,17.90
2019-04-07T17:52:29.095Z,17.80
2019-04-07T17:55:07.621Z,17.70
2019-04-07T17:57:54.138Z,17.60
2019-04-07T18:00:58.575Z,17.50
2019-04-07T18:03:48.215Z,17.40
2019-04-07T18:06:40.338Z,17.30
2019-04-07T18:09:34.723Z,17.20
2019-04-07T18:12:35.746Z,17.10
2019-04-07T18:15:24.294Z,17.00
2019-04-07T18:18:08.079Z,16.90
2019-04-07T18:20:45.641Z,16.80
2019-04-07T18:23:36.600Z,16.80
2019-04-07T18:26:16.403Z,16.70
2019-04-07T18:28:54.051Z,16.60
2019-04-07T18:31:45.548Z,16.50
2019-04-07T18:34:37.718Z,16.40
2019-04-07T18:37:16.893Z,16.20
2019-04-07T18:40:14.414Z,16.10
2019-04-07T18:43:16.886Z,16.00
2019-04-07T18:46:16.503Z,15.90
2019-04-07T18:49:13.196Z,15.80
2019-04-07T18:51:54.521Z,15.70
2019-04-07T18:54:54.802Z,15.60
2019-04-07T18:57:33.117Z,15.50
2019-04-07T19:00:20.975Z,15.40
2019-04-07T19:03:18.009Z,15.40
2019-04-07T19:06:14.847Z,15.30
2019-04-07T19:09:02.040Z,15.20
2019-04-07T19:11:49.941Z,15.10
2019-04-07T19:14:45.031Z,15.00
2019-04-07T19:17:34.933Z,15.00
2019-04-07T19:20:26.580Z,14.90
2019-04-07T19:23:13.536Z,14.70
2019-04-07T19:26:00.973Z,14.60
2019-04-07T19:28:40.256Z,14.40
2019-04-07T19:31:34.866Z,14.30
2019-04-07T19:34:31.443Z,14.20
2019-04-07T19:37:22.881Z,14.10
2019-04-07T19:40:02.885Z,14.00
2019-04-07T19:42:48.553Z,13.90
2019-04-07T19:45:26.649Z,13.80
2019-04-07T19:48:15.542Z,13.70
2019-04-07T19:51:19.741Z,13.60
2019-04-07T19:54:07.759Z,13.40
2019-04-07T19:56:48.007Z,13.30
2019-04-07T19:59:39.373Z,13.20
2019-04-07T20:02:25.333Z,13.20
2019-04-07T20:05:26.061Z,13.10
2019-04-07T20:08:19.423Z,13.10
2019-04-07T20:11:28.490Z,13.10
2019-04-07T20:14:30.923Z,13.00
2019-04-07T20:17:16.404Z,12.90
2019-04-07T20:20:11.301Z,12.90
2019-04-07T20:23:04.390Z,12.80
2019-04-07T20:25:57.167Z,12.70
2019-04-07T20:28:34.052Z,12.70
2019-04-07T20:31:12.762Z,12.60
2019-04-07T20:33:50.033Z,12.50
2019-04-07T20:36:38.081Z,12.40
2019-04-07T20:39:42.313Z,12.40
2019-04-07T20:42:29.801Z,12.30
2019-04-07T20:45:20.602Z,12.20
2019-04-07T20:48:03.028Z,12.10
2019-04-07T20:51:00.462Z,12.00
2019-04-07T20:53:46.854Z,12.00
2019-04-07T20:56:43.552Z,11.90
2019-04-07T20:59:32.933Z,11.80
2019-04-07T21:02:20.876Z,11.70
2019-04-07T21:05:12.419Z,11.70
2019-04-07T21:08:16.531Z,11.60
2019-04-07T21:11:05.640Z,11.50
2019-04-07T21:13:52.489Z,11.40
2019-04-07T21:16:47.013Z,11.30
2019-04-07T21:19:35.480Z,11.20
2019-04-07T21:22:22.786Z,11.10
2019-04-07T21:25:00.623Z,11.00
2019-04-07T21:27:54.888Z,11.00
2019-04-07T21:30:37.801Z,10.90
2019-04-07T21:33:22.352Z,10.80
2019-04-07T21:36:10.447Z,10.80
2019-04-07T21:39:01.767Z,10.70
2019-04-07T21:41:59.078Z,10.60
2019-04-07T21:44:46.038Z,10.50
2019-04-07T21:47:33.743Z,10.40
2019-04-07T21:50:10.414Z,10.40
2019-04-07T21:52:47.481Z,10.30
2019-04-07T21:55:33.375Z,10.20
2019-04-07T21:58:14.483Z,10.20
2019-04-07T22:00:49.189Z,10.10
2019-04-07T22:03:28.945Z,10.10
2019-04-07T22:06:28.438Z,10.00
2019-04-07T22:09:02.241Z,9.90
2019-04-07T22:11:32.524Z,9.90
2019-04-07T22:14:04.034Z,9.80
2019-04-07T22:16:34.142Z,9.80
2019-04-07T22:19:04.222Z,9.80
2019-04-07T22:21:34.158Z,9.70
2019-04-07T22:24:03.618Z,9.70
2019-04-07T22:26:33.641Z,9.60
2019-04-07T22:29:04.490Z,9.50
2019-04-07T22:31:45.597Z,9.50
2019-04-07T22:34:15.154Z,9.40
2019-04-07T22:36:46.941Z,9.30
2019-04-07T22:39:16.273Z,9.30
2019-04-07T22:41:46.290Z,9.20
2019-04-07T22:44:15.778Z,9.10
2019-04-07T22:46:49.530Z,9.10
2019-04-07T22:49:17.847Z,9.00
2019-04-07T22:51:49.416Z,8.90
2019-04-07T22:54:18.824Z,8.90
2019-04-07T22:56:48.788Z,8.80
2019-04-07T22:59:19.586Z,8.80
2019-04-07T23:01:49.416Z,8.70
2019-04-07T23:04:19.161Z,8.70
2019-04-07T23:06:48.440Z,8.70
2019-04-07T23:09:17.696Z,8.60
2019-04-07T23:11:47.023Z,8.60
2019-04-07T23:14:16.357Z,8.60
2019-04-07T23:16:46.410Z,8.50
2019-04-07T23:19:16.485Z,8.50
2019-04-07T23:21:45.968Z,8.50
2019-04-07T23:24:15.355Z,8.40
2019-04-07T23:26:44.726Z,8.30
2019-04-07T23:29:14.233Z,8.30
2019-04-07T23:31:44.054Z,8.20
2019-04-07T23:34:13.366Z,8.20
2019-04-07T23:36:43.570Z,8.10
2019-04-07T23:39:13.151Z,8.10
2019-04-07T23:41:43.477Z,8.00
2019-04-07T23:44:13.060Z,8.00
2019-04-07T23:46:42.324Z,8.00
2019-04-07T23:49:11.981Z,7.90
2019-04-07T23:51:41.436Z,7.90
2019-04-07T23:54:14.493Z,7.80
2019-04-07T23:56:45.075Z,7.80
2019-04-07T23:59:14.705Z,7.70
